createdAt,value
2019-04-05T00:02:09.140Z,98580.07
2019-04-05T00:04:38.301Z,98583.97
2019-04-05T00:07:07.483Z,98595.67
2019-04-05T00:09:36.643Z,98601.80
2019-04-05T00:12:05.808Z,98601.36
2019-04-05T00:14:35.160Z,98603.70
2019-04-05T00:17:04.319Z,98605.69
2019-04-05T00:19:33.450Z,98600.81
2019-04-05T00:22:03.116Z,98596.00
2019-04-05T00:24:32.335Z,98597.94
2019-04-05T00:27:01.504Z,98600.76
2019-04-05T00:29:30.657Z,98608.23
2019-04-05T00:32:00.234Z,98606.61
2019-04-05T00:34:29.504Z,98611.60
2019-04-05T00:36:58.634Z,98613.72
2019-04-05T00:39:27.798Z,98614.30
2019-04-05T00:41:57.188Z,98614.76
2019-04-05T00:44:26.365Z,98618.62
2019-04-05T00:46:55.513Z,98609.61
2019-04-05T00:49:25.069Z,98609.61
2019-04-05T00:51:54.528Z,98608.57
2019-04-05T00:54:24.356Z,98602.59
2019-04-05T00:56:53.532Z,98603.84
2019-04-05T00:59:22.665Z,98601.83
2019-04-05T01:01:51.982Z,98597.81
2019-04-05T01:04:21.168Z,98595.61
2019-04-05T01:06:50.455Z,98600.14
2019-04-05T01:09:19.771Z,98600.81
2019-04-05T01:11:49.540Z,98599.98
2019-04-05T01:14:19.175Z,98586.75
2019-04-05T01:16:48.405Z,98588.98
2019-04-05T01:19:19.001Z,98580.83
2019-04-05T01:21:49.947Z,98587.02
2019-04-05T01:24:20.761Z,98592.02
2019-04-05T01:26:50.997Z,98595.51
2019-04-05T01:29:20.836Z,98602.47
2019-04-05T01:31:50.049Z,98594.07
2019-04-05T01:34:19.215Z,98588.68
2019-04-05T01:36:48.391Z,98587.64
2019-04-05T01:39:17.619Z,98588.16
2019-04-05T01:41:47.123Z,98581.51
2019-04-05T01:44:16.358Z,98585.52
2019-04-05T01:46:45.733Z,98583.01
2019-04-05T01:49:14.984Z,98586.47
2019-04-05T01:51:44.584Z,98576.33
2019-04-05T01:54:13.974Z,98576.79
2019-04-05T01:56:43.662Z,98579.52
2019-04-05T01:59:12.946Z,98592.72
2019-04-05T02:01:42.163Z,98598.29
2019-04-05T02:04:11.279Z,98596.09
2019-04-05T02:06:40.656Z,98589.08
2019-04-05T02:09:12.133Z,98592.94
2019-04-05T02:11:41.572Z,98596.80
2019-04-05T02:14:10.932Z,98597.98
2019-04-05T02:16:40.260Z,98589.08
2019-04-05T02:19:12.647Z,98602.09
2019-04-05T02:21:41.887Z,98608.59
2019-04-05T02:24:11.010Z,98609.70
2019-04-05T02:26:40.153Z,98609.98
2019-04-05T02:29:09.463Z,98613.37
2019-04-05T02:31:38.628Z,98611.42
2019-04-05T02:34:07.765Z,98620.00
2019-04-05T02:36:37.143Z,98620.45
2019-04-05T02:39:08.561Z,98620.83
2019-04-05T02:41:38.656Z,98624.47
2019-04-05T02:44:10.700Z,98624.32
2019-04-05T02:46:41.693Z,98625.67
2019-04-05T02:49:12.766Z,98629.90
2019-04-05T02:51:43.834Z,98629.74
2019-04-05T02:54:13.731Z,98635.14
2019-04-05T02:56:43.751Z,98637.47
2019-04-05T02:59:14.349Z,98636.73
2019-04-05T03:01:44.290Z,98639.36
2019-04-05T03:04:14.145Z,98634.12
2019-04-05T03:06:43.862Z,98627.56
2019-04-05T03:09:13.189Z,98628.84
2019-04-05T03:11:43.627Z,98632.86
2019-04-05T03:14:14.264Z,98628.84
2019-04-05T03:16:46.382Z,98626.28
2019-04-05T03:19:24.932Z,98622.13
2019-04-05T03:21:58.749Z,98631.63
2019-04-05T03:24:31.767Z,98637.15
2019-04-05T03:27:12.107Z,98639.56
2019-04-05T03:29:42.909Z,98631.39
2019-04-05T03:32:12.050Z,98622.75
2019-04-05T03:34:42.501Z,98629.11
2019-04-05T03:37:11.768Z,98635.30
2019-04-05T03:39:41.351Z,98630.56
2019-04-05T03:42:11.073Z,98622.02
2019-04-05T03:44:40.418Z,98623.42
2019-04-05T03:47:09.762Z,98618.36
2019-04-05T03:49:38.912Z,98614.87
2019-04-05T03:52:08.073Z,98615.95
2019-04-05T03:54:37.472Z,98623.00
2019-04-05T03:57:06.701Z,98615.21
2019-04-05T03:59:36.145Z,98615.73
2019-04-05T04:02:05.715Z,98614.59
2019-04-05T04:04:35.098Z,98612.35
2019-04-05T04:07:04.681Z,98616.60
2019-04-05T04:09:34.184Z,98612.08
2019-04-05T04:12:03.703Z,98611.86
2019-04-05T04:14:32.833Z,98611.06
2019-04-05T04:17:12.063Z,98607.98
2019-04-05T04:19:34.181Z,98604.55
2019-04-05T04:22:23.605Z,98606.17
2019-04-05T04:24:53.033Z,98615.08
2019-04-05T04:27:22.945Z,98612.56
2019-04-05T04:29:53.173Z,98616.52
2019-04-05T04:32:22.759Z,98613.84
2019-04-05T04:34:53.513Z,98626.66
2019-04-05T04:37:23.334Z,98621.69
2019-04-05T04:39:52.826Z,98631.98
2019-04-05T04:42:22.321Z,98631.00
2019-04-05T04:44:51.509Z,98621.83
2019-04-05T04:47:27.003Z,98626.38
2019-04-05T04:49:53.565Z,98623.62
2019-04-05T04:52:22.950Z,98624.69
2019-04-05T04:54:52.482Z,98629.62
2019-04-05T04:57:21.658Z,98628.45
2019-04-05T04:59:51.036Z,98636.02
2019-04-05T05:02:20.401Z,98639.36
2019-04-05T05:04:49.680Z,98640.43
2019-04-05T05:07:19.321Z,98640.80
2019-04-05T05:09:48.774Z,98642.84
2019-04-05T05:12:19.592Z,98650.56
2019-04-05T05:14:49.009Z,98658.66
2019-04-05T05:17:18.539Z,98665.63
2019-04-05T05:19:48.658Z,98663.82
2019-04-05T05:22:19.090Z,98657.91
2019-04-05T05:24:48.342Z,98665.16
2019-04-05T05:27:17.781Z,98656.70
2019-04-05T05:29:47.295Z,98658.29
2019-04-05T05:32:16.777Z,98654.94
2019-04-05T05:34:46.264Z,98655.42
2019-04-05T05:37:15.649Z,98660.91
2019-04-05T05:39:44.951Z,98663.92
2019-04-05T05:42:14.099Z,98667.98
2019-04-05T05:44:43.450Z,98664.28
2019-04-05T05:47:13.042Z,98658.03
2019-04-05T05:49:42.391Z,98660.58
2019-04-05T05:52:11.665Z,98654.76
2019-04-05T05:54:40.863Z,98658.66
2019-04-05T05:57:10.022Z,98666.44
2019-04-05T05:59:39.218Z,98663.34
2019-04-05T06:02:08.386Z,98659.23
2019-04-05T06:04:37.841Z,98658.25
2019-04-05T06:07:06.974Z,98658.25
2019-04-05T06:09:36.193Z,98648.41
2019-04-05T06:12:05.679Z,98648.62
2019-04-05T06:14:35.547Z,98647.52
2019-04-05T06:17:04.745Z,98649.39
2019-04-05T06:19:34.008Z,98653.73
2019-04-05T06:22:03.187Z,98645.86
2019-04-05T06:24:32.485Z,98648.56
2019-04-05T06:27:01.614Z,98648.25
2019-04-05T06:29:30.829Z,98650.30
2019-04-05T06:31:59.950Z,98647.99
2019-04-05T06:34:29.448Z,98644.42
2019-04-05T06:36:58.564Z,98639.31
2019-04-05T06:39:27.880Z,98642.98
2019-04-05T06:41:57.147Z,98645.76
2019-04-05T06:44:27.921Z,98652.22
2019-04-05T06:46:57.336Z,98652.13
2019-04-05T06:49:26.543Z,98653.66
2019-04-05T06:51:55.692Z,98644.70
2019-04-05T06:54:24.959Z,98636.15
2019-04-05T06:56:54.175Z,98633.48
2019-04-05T06:59:23.346Z,98626.05
2019-04-05T07:01:52.562Z,98623.18
2019-04-05T07:04:21.861Z,98622.30
2019-04-05T07:06:51.015Z,98620.19
2019-04-05T07:09:20.174Z,98622.72
2019-04-05T07:11:49.349Z,98631.05
2019-04-05T07:14:18.633Z,98631.84
2019-04-05T07:16:48.766Z,98623.73
2019-04-05T07:19:17.932Z,98626.95
2019-04-05T07:21:47.096Z,98629.98
2019-04-05T07:24:16.433Z,98634.06
2019-04-05T07:26:45.646Z,98623.50
2019-04-05T07:29:14.791Z,98621.94
2019-04-05T07:31:44.259Z,98623.38
2019-04-05T07:34:13.582Z,98629.14
2019-04-05T07:36:42.795Z,98633.05
2019-04-05T07:39:11.926Z,98630.89
2019-04-05T07:41:41.297Z,98635.83
2019-04-05T07:44:10.472Z,98641.91
2019-04-05T07:46:39.683Z,98645.23
2019-04-05T07:49:09.015Z,98640.41
2019-04-05T07:51:38.413Z,98638.38
2019-04-05T07:54:07.595Z,98630.81
2019-04-05T07:56:36.892Z,98632.35
2019-04-05T07:59:06.182Z,98634.11
2019-04-05T08:01:35.337Z,98637.23
2019-04-05T08:04:04.640Z,98629.61
2019-04-05T08:06:35.131Z,98634.91
2019-04-05T08:09:10.486Z,98633.42
2019-04-05T08:11:41.905Z,98629.82
2019-04-05T08:14:12.309Z,98628.57
2019-04-05T08:16:41.451Z,98630.42
2019-04-05T08:19:10.790Z,98638.52
2019-04-05T08:21:39.957Z,98636.36
2019-04-05T08:24:09.772Z,98636.36
2019-04-05T08:26:38.992Z,98644.70
2019-04-05T08:29:08.577Z,98644.29
2019-04-05T08:31:37.787Z,98645.58
2019-04-05T08:34:07.122Z,98637.56
2019-04-05T08:36:36.317Z,98643.32
2019-04-05T08:39:07.976Z,98638.54
2019-04-05T08:41:37.217Z,98641.94
2019-04-05T08:44:06.784Z,98637.92
2019-04-05T08:46:36.357Z,98648.04
2019-04-05T08:49:10.845Z,98647.36
2019-04-05T08:51:37.372Z,98652.32
2019-04-05T08:54:06.616Z,98658.89
2019-04-05T08:56:35.838Z,98652.82
2019-04-05T08:59:05.194Z,98644.65
2019-04-05T09:01:34.616Z,98644.06
2019-04-05T09:04:04.223Z,98645.09
2019-04-05T09:06:33.798Z,98649.22
2019-04-05T09:09:05.790Z,98647.89
2019-04-05T09:11:35.111Z,98650.48
2019-04-05T09:14:04.275Z,98647.08
2019-04-05T09:16:33.436Z,98648.32
2019-04-05T09:19:02.680Z,98636.77
2019-04-05T09:21:32.105Z,98633.53
2019-04-05T09:24:01.512Z,98636.10
2019-04-05T09:26:30.707Z,98629.56
2019-04-05T09:28:59.865Z,98625.03
2019-04-05T09:31:29.168Z,98627.33
2019-04-05T09:33:58.304Z,98613.95
2019-04-05T09:36:27.562Z,98612.83
2019-04-05T09:38:56.905Z,98615.69
2019-04-05T09:41:26.194Z,98619.67
2019-04-05T09:43:55.435Z,98618.86
2019-04-05T09:46:24.697Z,98614.96
2019-04-05T09:48:53.897Z,98605.22
2019-04-05T09:51:23.065Z,98600.09
2019-04-05T09:53:52.218Z,98593.34
2019-04-05T09:56:21.467Z,98596.38
2019-04-05T09:58:50.696Z,98598.13
2019-04-05T10:01:19.970Z,98596.69
2019-04-05T10:03:49.127Z,98595.57
2019-04-05T10:06:18.330Z,98588.55
2019-04-05T10:08:47.481Z,98583.92
2019-04-05T10:11:17.194Z,98574.98
2019-04-05T10:13:46.501Z,98574.84
2019-04-05T10:16:15.690Z,98573.16
2019-04-05T10:18:44.884Z,98566.37
2019-04-05T10:21:14.261Z,98573.46
2019-04-05T10:23:43.722Z,98568.44
2019-04-05T10:26:12.887Z,98572.90
2019-04-05T10:28:42.122Z,98571.41
2019-04-05T10:31:11.352Z,98577.81
2019-04-05T10:33:40.561Z,98565.34
2019-04-05T10:36:09.892Z,98568.08
2019-04-05T10:38:39.085Z,98569.83
2019-04-05T10:41:08.414Z,98568.41
2019-04-05T10:43:37.584Z,98570.16
2019-04-05T10:46:06.943Z,98572.88
2019-04-05T10:48:36.089Z,98567.53
2019-04-05T10:51:05.307Z,98566.89
2019-04-05T10:53:34.516Z,98564.30
2019-04-05T10:56:03.811Z,98567.36
2019-04-05T10:58:33.047Z,98570.19
2019-04-05T11:01:02.219Z,98565.94
2019-04-05T11:03:31.541Z,98565.44
2019-04-05T11:06:00.945Z,98562.80
2019-04-05T11:08:30.265Z,98559.87
2019-04-05T11:10:59.408Z,98559.13
2019-04-05T11:13:28.789Z,98561.23
2019-04-05T11:15:58.034Z,98564.02
2019-04-05T11:18:27.275Z,98566.97
2019-04-05T11:20:56.456Z,98560.90
2019-04-05T11:23:25.850Z,98548.82
2019-04-05T11:25:55.300Z,98557.23
2019-04-05T11:28:24.469Z,98556.59
2019-04-05T11:30:53.687Z,98556.95
2019-04-05T11:33:23.413Z,98551.68
2019-04-05T11:35:52.635Z,98550.05
2019-04-05T11:38:24.274Z,98550.94
2019-04-05T11:40:53.900Z,98552.23
2019-04-05T11:43:26.887Z,98557.02
2019-04-05T11:45:56.902Z,98561.78
2019-04-05T11:48:26.331Z,98555.17
2019-04-05T11:50:57.392Z,98558.71
2019-04-05T11:53:26.581Z,98551.67
2019-04-05T11:55:55.860Z,98554.55
2019-04-05T11:58:25.303Z,98553.37
2019-04-05T12:01:12.682Z,98558.33
2019-04-05T12:03:47.106Z,98555.62
2019-04-05T12:06:16.314Z,98564.34
2019-04-05T12:08:45.583Z,98563.72
2019-04-05T12:11:14.812Z,98562.50
2019-04-05T12:13:44.040Z,98558.21
2019-04-05T12:16:13.299Z,98555.92
2019-04-05T12:18:42.600Z,98554.02
2019-04-05T12:21:14.755Z,98548.78
2019-04-05T12:23:44.229Z,98554.00
2019-04-05T12:26:13.661Z,98546.48
2019-04-05T12:28:42.807Z,98550.38
2019-04-05T12:31:12.058Z,98543.69
2019-04-05T12:33:41.501Z,98538.79
2019-04-05T12:36:10.763Z,98537.55
2019-04-05T12:38:39.950Z,98542.12
2019-04-05T12:41:10.983Z,98530.00
2019-04-05T12:43:43.804Z,98536.50
2019-04-05T12:46:15.120Z,98537.62
2019-04-05T12:48:45.445Z,98533.53
2019-04-05T12:51:15.561Z,98534.34
2019-04-05T12:53:44.240Z,98530.66
2019-04-05T12:56:13.489Z,98533.53
2019-04-05T12:58:42.814Z,98537.01
2019-04-05T13:01:12.012Z,98535.89
2019-04-05T13:03:41.219Z,98527.80
2019-04-05T13:06:10.446Z,98533.91
2019-04-05T13:08:40.348Z,98534.34
2019-04-05T13:11:09.553Z,98527.36
2019-04-05T13:13:39.008Z,98520.67
2019-04-05T13:16:10.758Z,98520.27
2019-04-05T13:18:39.187Z,98528.48
2019-04-05T13:21:15.132Z,98523.13
2019-04-05T13:23:39.409Z,98517.18
2019-04-05T13:26:11.480Z,98521.08
2019-04-05T13:28:39.541Z,98523.27
2019-04-05T13:31:08.752Z,98513.80
2019-04-05T13:33:37.932Z,98515.29
2019-04-05T13:36:08.591Z,98510.62
2019-04-05T13:38:37.838Z,98505.31
2019-04-05T13:41:07.044Z,98497.45
2019-04-05T13:43:36.396Z,98497.58
2019-04-05T13:46:05.581Z,98502.52
2019-04-05T13:48:34.820Z,98494.95
2019-04-05T13:51:07.080Z,98493.30
2019-04-05T13:53:35.163Z,98499.31
2019-04-05T13:56:04.421Z,98506.94
2019-04-05T13:58:33.739Z,98505.99
2019-04-05T14:01:03.138Z,98496.09
2019-04-05T14:03:32.372Z,98499.31
2019-04-05T14:06:01.528Z,98497.94
2019-04-05T14:08:30.806Z,98501.67
2019-04-05T14:10:59.983Z,98505.64
2019-04-05T14:13:29.207Z,98505.06
2019-04-05T14:15:58.558Z,98502.42
2019-04-05T14:18:27.898Z,98501.13
2019-04-05T14:20:57.162Z,98502.90
2019-04-05T14:23:26.355Z,98500.11
2019-04-05T14:25:59.522Z,98495.66
2019-04-05T14:28:26.944Z,98491.86
2019-04-05T14:30:56.149Z,98496.85
2019-04-05T14:33:25.531Z,98494.30
2019-04-05T14:35:55.405Z,98488.51
2019-04-05T14:38:24.666Z,98487.75
2019-04-05T14:40:54.094Z,98478.47
2019-04-05T14:43:23.483Z,98484.23
2019-04-05T14:45:55.851Z,98483.25
2019-04-05T14:48:27.339Z,98486.21
2019-04-05T14:50:57.861Z,98488.65
2019-04-05T14:53:27.082Z,98493.59
2019-04-05T14:55:59.086Z,98488.66
2019-04-05T14:58:28.076Z,98492.00
2019-04-05T15:00:57.320Z,98486.21
2019-04-05T15:03:26.739Z,98480.48
2019-04-05T15:05:56.252Z,98479.19
2019-04-05T15:08:25.791Z,98477.60
2019-04-05T15:10:56.892Z,98471.47
2019-04-05T15:13:26.636Z,98471.61
2019-04-05T15:15:56.777Z,98471.73
2019-04-05T15:18:29.114Z,98475.29
2019-04-05T15:20:58.537Z,98477.67
2019-04-05T15:23:28.036Z,98478.48
2019-04-05T15:25:57.586Z,98480.45
2019-04-05T15:28:26.758Z,98488.24
2019-04-05T15:30:56.621Z,98483.65
2019-04-05T15:33:27.874Z,98477.17
2019-04-05T15:36:00.123Z,98480.16
2019-04-05T15:38:31.334Z,98475.55
2019-04-05T15:40:58.914Z,98476.89
2019-04-05T15:43:28.276Z,98481.36
2019-04-05T15:45:57.405Z,98480.45
2019-04-05T15:48:26.632Z,98472.55
2019-04-05T15:50:59.094Z,98480.69
2019-04-05T15:53:26.806Z,98482.77
2019-04-05T15:55:55.985Z,98479.31
2019-04-05T15:58:25.328Z,98484.83
2019-04-05T16:00:54.904Z,98478.15
2019-04-05T16:03:24.149Z,98481.69
2019-04-05T16:05:53.333Z,98479.02
2019-04-05T16:08:22.824Z,98482.63
2019-04-05T16:10:52.255Z,98488.56
2019-04-05T16:13:21.472Z,98486.17
2019-04-05T16:15:50.674Z,98487.06
2019-04-05T16:18:20.033Z,98491.90
2019-04-05T16:20:49.451Z,98490.36
2019-04-05T16:23:18.617Z,98493.47
2019-04-05T16:25:47.776Z,98498.38
2019-04-05T16:28:17.015Z,98506.20
2019-04-05T16:30:46.192Z,98497.41
2019-04-05T16:33:15.438Z,98497.01
2019-04-05T16:35:44.746Z,98500.66
2019-04-05T16:38:13.929Z,98506.31
2019-04-05T16:40:43.108Z,98508.91
2019-04-05T16:43:12.284Z,98505.56
2019-04-05T16:45:41.462Z,98508.03
2019-04-05T16:48:10.636Z,98509.96
2019-04-05T16:50:42.280Z,98513.23
2019-04-05T16:53:10.965Z,98507.84
2019-04-05T16:55:40.204Z,98516.02
2019-04-05T16:58:09.701Z,98513.41
2019-04-05T17:00:38.897Z,98512.03
2019-04-05T17:03:08.062Z,98510.30
2019-04-05T17:05:37.306Z,98510.45
2019-04-05T17:08:06.461Z,98515.08
2019-04-05T17:10:35.673Z,98504.36
2019-04-05T17:13:05.005Z,98507.78
2019-04-05T17:15:34.218Z,98507.23
2019-04-05T17:18:03.424Z,98516.06
2019-04-05T17:20:32.782Z,98512.80
2019-04-05T17:23:02.305Z,98516.61
2019-04-05T17:25:31.767Z,98509.01
2019-04-05T17:28:01.134Z,98511.84
2019-04-05T17:30:30.375Z,98511.48
2019-04-05T17:32:59.568Z,98513.28
2019-04-05T17:35:30.841Z,98514.73
2019-04-05T17:38:00.006Z,98514.91
2019-04-05T17:40:29.690Z,98517.69
2019-04-05T17:42:58.897Z,98520.51
2019-04-05T17:45:28.214Z,98528.43
2019-04-05T17:47:57.850Z,98522.07
2019-04-05T17:50:32.424Z,98522.78
2019-04-05T17:53:11.999Z,98525.13
2019-04-05T17:55:33.099Z,98520.59
2019-04-05T17:58:05.381Z,98521.30
2019-04-05T18:00:34.699Z,98522.45
2019-04-05T18:03:04.352Z,98522.25
2019-04-05T18:05:33.498Z,98523.55
2019-04-05T18:08:03.131Z,98524.48
2019-04-05T18:10:32.427Z,98529.45
2019-04-05T18:13:01.825Z,98530.13
2019-04-05T18:15:31.379Z,98535.84
2019-04-05T18:18:00.618Z,98537.49
2019-04-05T18:20:29.887Z,98535.94
2019-04-05T18:22:59.163Z,98540.64
2019-04-05T18:25:28.497Z,98541.59
2019-04-05T18:27:58.362Z,98538.23
2019-04-05T18:30:27.862Z,98540.75
2019-04-05T18:32:57.138Z,98544.55
2019-04-05T18:35:26.320Z,98540.36
2019-04-05T18:37:55.534Z,98538.41
2019-04-05T18:40:24.946Z,98538.15
2019-04-05T18:42:54.170Z,98539.89
2019-04-05T18:45:23.361Z,98542.95
2019-04-05T18:47:52.785Z,98543.63
2019-04-05T18:50:22.123Z,98543.05
2019-04-05T18:52:51.639Z,98544.04
2019-04-05T18:55:21.283Z,98539.80
2019-04-05T18:57:50.516Z,98545.50
2019-04-05T19:00:19.800Z,98545.83
2019-04-05T19:02:49.072Z,98547.75
2019-04-05T19:05:18.732Z,98540.72
2019-04-05T19:07:48.017Z,98539.31
2019-04-05T19:10:17.715Z,98543.55
2019-04-05T19:12:47.383Z,98535.45
2019-04-05T19:15:16.635Z,98541.81
2019-04-05T19:17:45.923Z,98545.80
2019-04-05T19:20:15.314Z,98542.93
2019-04-05T19:22:44.529Z,98536.72
2019-04-05T19:25:13.989Z,98548.03
2019-04-05T19:27:43.131Z,98551.91
2019-04-05T19:50:21.127Z,98533.88
2019-04-05T19:52:50.501Z,98536.46
2019-04-05T19:55:19.649Z,98546.44
2019-04-05T19:57:48.999Z,98545.37
2019-04-05T20:00:19.027Z,98549.04
2019-04-05T20:02:48.289Z,98554.06
2019-04-05T20:05:17.549Z,98549.14
2019-04-05T20:07:46.752Z,98550.69
2019-04-05T20:10:16.263Z,98545.63
2019-04-05T20:12:45.500Z,98551.27
2019-04-05T20:15:14.826Z,98550.59
2019-04-05T20:17:44.024Z,98547.69
2019-04-05T20:20:13.397Z,98551.00
2019-04-05T20:22:42.581Z,98544.28
2019-04-05T20:25:11.841Z,98543.36
2019-04-05T20:27:41.157Z,98551.52
2019-04-05T20:30:10.630Z,98548.11
2019-04-05T20:32:39.949Z,98554.68
2019-04-05T20:35:09.371Z,98554.00
2019-04-05T20:37:40.135Z,98554.58
2019-04-05T20:40:09.531Z,98553.42
2019-04-05T20:42:38.702Z,98555.36
2019-04-05T20:45:07.987Z,98547.34
2019-04-05T20:47:37.353Z,98548.41
2019-04-05T20:50:06.902Z,98551.47
2019-04-05T20:52:36.128Z,98552.45
2019-04-05T20:55:06.119Z,98551.66
2019-04-05T20:57:35.318Z,98553.28
2019-04-05T21:00:05.063Z,98552.95
2019-04-05T21:02:34.254Z,98560.36
2019-04-05T21:05:03.434Z,98557.92
2019-04-05T21:07:32.813Z,98562.88
2019-04-05T21:10:01.954Z,98566.50
2019-04-05T21:12:31.111Z,98570.88
2019-04-05T21:15:01.469Z,98578.52
2019-04-05T21:17:30.615Z,98569.47
2019-04-05T21:19:59.808Z,98573.56
2019-04-05T21:22:29.356Z,98570.63
2019-04-05T21:24:58.742Z,98572.52
2019-04-05T21:27:27.940Z,98570.08
2019-04-05T21:29:57.143Z,98567.02
2019-04-05T21:32:27.938Z,98569.13
2019-04-05T21:34:57.065Z,98565.86
2019-04-05T21:37:26.400Z,98574.19
2019-04-05T21:39:55.572Z,98575.27
2019-04-05T21:42:24.721Z,98575.97
2019-04-05T21:44:54.096Z,98574.92
2019-04-05T21:47:23.383Z,98576.33
2019-04-05T21:49:52.575Z,98578.33
2019-04-05T21:52:21.753Z,98579.50
2019-04-05T21:54:50.972Z,98576.92
2019-04-05T21:57:20.146Z,98582.31
2019-04-05T21:59:49.371Z,98581.37
2019-04-05T22:02:18.655Z,98575.50
2019-04-05T22:04:47.887Z,98577.97
2019-04-05T22:07:17.590Z,98576.20
2019-04-05T22:09:46.799Z,98575.95
2019-04-05T22:12:15.995Z,98573.58
2019-04-05T22:14:45.339Z,98580.36
2019-04-05T22:17:14.526Z,98587.95
2019-04-05T22:19:44.752Z,98590.63
2019-04-05T22:22:14.238Z,98598.36
2019-04-05T22:24:43.363Z,98595.01
2019-04-05T22:27:12.534Z,98605.51
2019-04-05T22:29:41.962Z,98599.98
2019-04-05T22:32:11.671Z,98594.95
2019-04-05T22:34:40.989Z,98595.25
2019-04-05T22:37:10.250Z,98591.32
2019-04-05T22:39:39.525Z,98592.19
2019-04-05T22:42:08.785Z,98589.54
2019-04-05T22:44:41.339Z,98583.73
2019-04-05T22:47:08.928Z,98584.66
2019-04-05T22:49:38.197Z,98590.48
2019-04-05T22:52:07.362Z,98591.39
2019-04-05T22:54:36.514Z,98593.11
2019-04-05T22:57:05.741Z,98590.79
2019-04-05T22:59:34.949Z,98595.79
2019-04-05T23:02:04.179Z,98594.84
2019-04-05T23:04:33.559Z,98600.39
2019-04-05T23:07:02.696Z,98593.55
2019-04-05T23:09:31.934Z,98592.39
2019-04-05T23:12:01.241Z,98599.16
2019-04-05T23:14:30.372Z,98599.07
2019-04-05T23:16:59.504Z,98598.02
2019-04-05T23:19:30.035Z,98600.97
2019-04-05T23:22:00.916Z,98600.27
2019-04-05T23:24:30.217Z,98606.11
2019-04-05T23:26:59.547Z,98603.75
2019-04-05T23:29:28.999Z,98603.19
2019-04-05T23:31:58.694Z,98609.64
2019-04-05T23:34:28.080Z,98613.92
2019-04-05T23:36:57.234Z,98615.16
2019-04-05T23:39:26.374Z,98616.38
2019-04-05T23:41:55.821Z,98610.73
2019-04-05T23:44:24.970Z,98621.59
2019-04-05T23:46:54.120Z,98617.66
2019-04-05T23:49:23.302Z,98616.58
2019-04-05T23:51:52.495Z,98610.48
2019-04-05T23:54:21.617Z,98610.53
2019-04-05T23:56:50.765Z,98615.92
2019-04-05T23:59:19.888Z,98612.98
